createdAt,value
2019-03-04T00:02:08.617Z,98588.67
2019-03-04T00:04:36.493Z,98575.68
2019-03-04T00:07:04.562Z,98572.25
2019-03-04T00:09:32.538Z,98552.86
2019-03-04T00:12:00.414Z,98553.28
2019-03-04T00:14:28.290Z,98555.76
2019-03-04T00:16:56.190Z,98557.53
2019-03-04T00:19:24.369Z,98567.35
2019-03-04T00:21:52.314Z,98570.36
2019-03-04T00:24:20.194Z,98567.13
2019-03-04T00:26:48.086Z,98562.29
2019-03-04T00:29:15.989Z,98581.96
2019-03-04T00:31:43.865Z,98580.88
2019-03-04T00:34:11.870Z,98609.91
2019-03-04T00:36:39.868Z,98573.81
2019-03-04T00:39:09.933Z,98598.66
2019-03-04T00:41:37.806Z,98581.62
2019-03-04T00:44:05.750Z,98583.16
2019-03-04T00:46:33.648Z,98589.48
2019-03-04T00:49:01.590Z,98580.37
2019-03-04T00:51:29.614Z,98590.00
2019-03-04T00:53:57.486Z,98584.94
2019-03-04T00:56:25.454Z,98583.86
2019-03-04T00:58:53.353Z,98583.31
2019-03-04T01:01:21.226Z,98581.47
2019-03-04T01:03:49.198Z,98581.70
2019-03-04T01:06:17.126Z,98567.90
2019-03-04T01:08:44.998Z,98566.80
2019-03-04T01:11:12.870Z,98561.50
2019-03-04T01:13:40.803Z,98568.45
2019-03-04T01:16:08.773Z,98540.45
2019-03-04T01:18:36.662Z,98534.09
2019-03-04T01:21:04.645Z,98531.92
2019-03-04T01:23:32.518Z,98528.23
2019-03-04T01:26:00.430Z,98520.22
2019-03-04T01:28:28.306Z,98506.10
2019-03-04T01:30:56.181Z,98497.84
2019-03-04T01:33:24.099Z,98482.97
2019-03-04T01:35:52.001Z,98473.33
2019-03-04T01:38:19.945Z,98476.52
2019-03-04T01:40:47.931Z,98473.88
2019-03-04T01:43:15.801Z,98450.45
2019-03-04T01:45:43.757Z,98452.06
2019-03-04T01:48:11.649Z,98452.00
2019-03-04T01:50:39.533Z,98438.19
2019-03-04T01:53:07.448Z,98433.91
2019-03-04T01:55:35.328Z,98430.41
2019-03-04T01:58:03.289Z,98419.24
2019-03-04T02:00:31.278Z,98420.10
2019-03-04T02:02:59.268Z,98420.42
2019-03-04T02:05:27.274Z,98420.21
2019-03-04T02:07:55.193Z,98399.98
2019-03-04T02:10:23.092Z,98394.72
2019-03-04T02:12:50.969Z,98385.13
2019-03-04T02:15:19.094Z,98374.73
2019-03-04T02:17:47.041Z,98375.32
2019-03-04T02:20:15.553Z,98369.47
2019-03-04T02:22:43.530Z,98381.46
2019-03-04T02:25:12.626Z,98367.57
2019-03-04T02:27:59.698Z,98361.91
2019-03-04T02:30:27.776Z,98362.22
2019-03-04T02:32:55.723Z,98365.41
2019-03-04T02:35:23.635Z,98365.71
2019-03-04T02:37:52.041Z,98363.58
2019-03-04T02:40:20.089Z,98358.08
2019-03-04T02:42:48.092Z,98360.91
2019-03-04T02:45:17.513Z,98344.64
2019-03-04T02:47:45.919Z,98350.30
2019-03-04T02:50:14.295Z,98333.55
2019-03-04T02:52:42.785Z,98327.20
2019-03-04T02:55:11.212Z,98318.14
2019-03-04T02:57:40.006Z,98297.34
2019-03-04T03:00:08.590Z,98280.65
2019-03-04T03:02:37.209Z,98267.17
2019-03-04T03:05:06.978Z,98278.41
2019-03-04T03:07:35.187Z,98287.92
2019-03-04T03:10:03.367Z,98281.47
2019-03-04T03:12:31.241Z,98265.95
2019-03-04T03:14:59.994Z,98240.05
2019-03-04T03:17:28.779Z,98241.37
2019-03-04T03:19:57.499Z,98235.31
2019-03-04T03:22:26.160Z,98227.06
2019-03-04T03:24:54.439Z,98194.85
2019-03-04T03:27:22.852Z,98203.19
2019-03-04T03:29:52.240Z,98188.58
2019-03-04T03:32:20.446Z,98189.39
2019-03-04T03:34:48.327Z,98209.33
2019-03-04T03:37:16.211Z,98222.78
2019-03-04T03:39:44.878Z,98193.65
2019-03-04T03:42:12.770Z,98195.11
2019-03-04T03:44:40.682Z,98188.77
2019-03-04T03:47:08.702Z,98175.77
2019-03-04T03:49:36.571Z,98170.73
2019-03-04T03:52:04.563Z,98172.06
2019-03-04T03:54:32.510Z,98169.71
2019-03-04T03:57:00.853Z,98165.48
2019-03-04T03:59:29.640Z,98171.37
2019-03-04T04:01:58.287Z,98172.70
2019-03-04T04:04:26.637Z,98170.38
2019-03-04T04:06:55.252Z,98166.08
2019-03-04T04:09:24.086Z,98159.38
2019-03-04T04:11:52.848Z,98167.55
2019-03-04T04:14:21.616Z,98150.66
2019-03-04T04:16:50.341Z,98150.79
2019-03-04T04:19:19.011Z,98145.20
2019-03-04T04:21:47.679Z,98134.77
2019-03-04T04:24:15.871Z,98114.06
2019-03-04T04:26:43.741Z,98094.91
2019-03-04T04:29:12.769Z,98095.53
2019-03-04T04:31:42.131Z,98089.91
2019-03-04T04:34:10.515Z,98088.31
2019-03-04T04:36:39.183Z,98062.48
2019-03-04T04:39:08.511Z,98048.74
2019-03-04T04:41:36.865Z,98048.45
2019-03-04T04:44:05.806Z,98027.64
2019-03-04T04:46:47.529Z,98008.39
2019-03-04T04:49:15.521Z,98009.15
2019-03-04T04:51:44.205Z,98006.13
2019-03-04T04:54:12.903Z,98010.69
2019-03-04T04:56:41.731Z,97992.75
2019-03-04T04:59:09.989Z,98004.44
2019-03-04T05:01:38.654Z,97988.63
2019-03-04T05:04:06.654Z,97964.70
2019-03-04T05:06:34.622Z,97949.23
2019-03-04T05:09:02.497Z,97954.19
2019-03-04T05:11:30.401Z,97960.19
2019-03-04T05:13:58.270Z,97953.77
2019-03-04T05:16:26.142Z,97945.79
2019-03-04T05:18:54.489Z,97923.17
2019-03-04T05:21:22.358Z,97913.05
2019-03-04T05:23:50.564Z,97881.08
2019-03-04T05:26:18.564Z,97877.19
2019-03-04T05:28:47.162Z,97855.95
2019-03-04T05:31:15.088Z,97841.94
2019-03-04T05:33:43.031Z,97842.53
2019-03-04T05:36:10.907Z,97844.16
2019-03-04T05:38:38.791Z,97838.48
2019-03-04T05:41:06.778Z,97852.02
2019-03-04T05:43:34.641Z,97851.02
2019-03-04T05:46:02.542Z,97855.83
2019-03-04T05:48:30.445Z,97844.56
2019-03-04T05:50:58.754Z,97838.83
2019-03-04T05:53:26.990Z,97819.72
2019-03-04T05:55:55.445Z,97823.52
2019-03-04T05:58:24.175Z,97841.87
2019-03-04T06:01:14.202Z,97811.33
2019-03-04T06:03:42.787Z,97811.77
2019-03-04T06:06:10.699Z,97800.38
2019-03-04T06:08:39.214Z,97780.50
2019-03-04T06:11:08.334Z,97798.80
2019-03-04T06:13:40.175Z,97777.09
2019-03-04T06:16:08.150Z,97790.20
2019-03-04T06:18:36.038Z,97792.39
2019-03-04T06:21:04.520Z,97786.55
2019-03-04T06:23:32.794Z,97770.09
2019-03-04T06:26:00.791Z,97779.38
2019-03-04T06:28:28.741Z,97779.77
2019-03-04T06:30:57.121Z,97768.50
2019-03-04T06:33:25.036Z,97739.06
2019-03-04T06:35:52.945Z,97749.98
2019-03-04T06:38:21.189Z,97755.05
2019-03-04T06:40:49.102Z,97754.74
2019-03-04T06:43:17.506Z,97741.47
2019-03-04T06:45:45.401Z,97741.47
2019-03-04T06:48:13.652Z,97741.81
2019-03-04T06:50:48.702Z,97743.33
2019-03-04T06:53:19.218Z,97724.20
2019-03-04T06:56:06.758Z,97719.95
2019-03-04T06:58:34.784Z,97715.22
2019-03-04T07:01:05.843Z,97713.87
2019-03-04T07:03:36.216Z,97725.86
2019-03-04T07:06:05.979Z,97723.89
2019-03-04T07:08:53.117Z,97719.69
2019-03-04T07:11:37.937Z,97708.13
2019-03-04T07:14:26.014Z,97704.09
2019-03-04T07:16:54.722Z,97697.98
2019-03-04T07:19:24.110Z,97675.30
2019-03-04T07:21:53.415Z,97648.63
2019-03-04T07:24:21.783Z,97658.62
2019-03-04T07:26:50.347Z,97659.95
2019-03-04T07:29:19.497Z,97652.94
2019-03-04T07:31:48.144Z,97650.40
2019-03-04T07:34:16.870Z,97650.33
2019-03-04T07:36:44.822Z,97647.42
2019-03-04T07:39:13.858Z,97645.20
2019-03-04T07:41:43.346Z,97615.86
2019-03-04T07:44:11.298Z,97618.91
2019-03-04T07:46:39.282Z,97626.02
2019-03-04T07:49:07.453Z,97608.48
2019-03-04T07:51:41.654Z,97616.48
2019-03-04T07:54:09.605Z,97621.74
2019-03-04T07:56:37.657Z,97660.23
2019-03-04T07:59:05.658Z,97758.75
2019-03-04T08:01:33.716Z,97838.94
2019-03-04T08:04:02.121Z,97860.96
2019-03-04T08:06:30.814Z,97940.44
2019-03-04T08:09:16.671Z,97891.54
2019-03-04T08:12:02.514Z,97862.45
2019-03-04T08:14:30.430Z,97888.97
2019-03-04T08:16:58.763Z,97881.86
2019-03-04T08:19:26.752Z,97901.94
2019-03-04T08:21:55.121Z,97886.88
2019-03-04T08:24:23.654Z,97865.97
2019-03-04T08:26:51.626Z,97913.66
2019-03-04T08:29:19.915Z,97896.43
2019-03-04T08:31:48.610Z,97853.88
2019-03-04T08:34:17.202Z,97821.66
2019-03-04T08:36:45.258Z,97865.29
2019-03-04T08:39:13.546Z,97834.85
2019-03-04T08:41:41.550Z,97815.56
2019-03-04T08:44:09.517Z,97841.20
2019-03-04T08:46:37.693Z,97838.04
2019-03-04T08:49:06.072Z,97846.22
2019-03-04T08:51:34.294Z,97827.13
2019-03-04T08:54:02.182Z,97810.42
2019-03-04T08:56:30.573Z,97809.56
2019-03-04T08:58:58.912Z,97797.08
2019-03-04T09:01:27.334Z,97828.81
2019-03-04T09:03:55.614Z,97813.14
2019-03-04T09:06:23.582Z,97821.77
2019-03-04T09:08:51.478Z,97822.24
2019-03-04T09:11:19.454Z,97812.95
2019-03-04T09:13:47.343Z,97826.72
2019-03-04T09:16:15.534Z,97823.48
2019-03-04T09:18:43.516Z,97806.36
2019-03-04T09:21:11.386Z,97809.69
2019-03-04T09:23:39.250Z,97808.28
2019-03-04T09:26:08.486Z,97808.67
2019-03-04T09:28:36.357Z,97811.00
2019-03-04T09:31:04.399Z,97788.70
2019-03-04T09:33:32.786Z,97793.80
2019-03-04T09:36:00.707Z,97785.42
2019-03-04T09:38:28.595Z,97763.30
2019-03-04T09:40:56.571Z,97779.31
2019-03-04T09:43:24.622Z,97762.01
2019-03-04T09:45:52.608Z,97764.08
2019-03-04T09:48:20.473Z,97782.72
2019-03-04T09:50:48.538Z,97749.06
2019-03-04T09:53:16.485Z,97754.95
2019-03-04T09:55:45.221Z,97755.83
2019-03-04T09:58:13.198Z,97777.02
2019-03-04T10:00:59.079Z,97769.68
2019-03-04T10:03:49.884Z,97748.91
2019-03-04T10:06:46.330Z,97788.38
2019-03-04T10:09:19.410Z,97765.83
2019-03-04T10:12:06.966Z,97762.14
2019-03-04T10:14:53.530Z,97771.47
2019-03-04T10:17:40.974Z,97766.38
2019-03-04T10:20:22.996Z,97765.70
2019-03-04T10:23:02.498Z,97762.34
2019-03-04T10:25:46.785Z,97771.84
2019-03-04T10:28:26.815Z,97772.88
2019-03-04T10:31:07.631Z,97782.31
2019-03-04T10:34:07.292Z,97810.88
2019-03-04T10:36:53.422Z,97797.55
2019-03-04T10:39:49.966Z,97803.48
2019-03-04T10:42:29.418Z,97789.39
2019-03-04T10:45:12.278Z,97777.48
2019-03-04T10:47:40.183Z,97792.34
2019-03-04T10:50:08.954Z,97777.27
2019-03-04T10:52:36.830Z,97774.47
2019-03-04T10:55:06.346Z,97765.38
2019-03-04T10:57:34.217Z,97779.25
2019-03-04T11:00:02.115Z,97761.07
2019-03-04T11:02:30.079Z,97759.83
2019-03-04T11:04:57.946Z,97765.34
2019-03-04T11:07:26.171Z,97774.17
2019-03-04T11:09:54.186Z,97767.60
2019-03-04T11:12:22.158Z,97765.63
2019-03-04T11:14:50.066Z,97768.34
2019-03-04T11:17:17.949Z,97764.64
2019-03-04T11:19:45.826Z,97797.14
2019-03-04T11:22:13.801Z,97759.52
2019-03-04T11:24:41.678Z,97799.16
2019-03-04T11:27:09.742Z,97817.27
2019-03-04T11:29:38.156Z,97814.45
2019-03-04T11:32:07.390Z,97814.00
2019-03-04T11:34:35.383Z,97813.25
2019-03-04T11:37:03.447Z,97811.83
2019-03-04T11:39:59.914Z,97822.48
2019-03-04T11:42:31.901Z,97809.08
2019-03-04T11:44:59.998Z,97822.70
2019-03-04T11:47:28.439Z,97812.45
2019-03-04T11:49:56.474Z,97817.05
2019-03-04T11:52:25.300Z,97812.22
2019-03-04T11:54:53.574Z,97786.31
2019-03-04T11:57:22.422Z,97785.16
2019-03-04T11:59:50.780Z,97777.89
2019-03-04T12:02:23.578Z,97760.47
2019-03-04T12:04:51.586Z,97774.18
2019-03-04T12:07:19.649Z,97759.47
2019-03-04T12:09:47.625Z,97764.16
2019-03-04T12:12:15.622Z,97751.41
2019-03-04T12:14:43.497Z,97774.14
2019-03-04T12:17:11.488Z,97746.90
2019-03-04T12:19:39.402Z,97753.17
2019-03-04T12:22:07.360Z,97745.44
2019-03-04T12:24:35.306Z,97737.17
2019-03-04T12:27:03.293Z,97739.07
2019-03-04T12:29:31.170Z,97723.67
2019-03-04T12:32:18.170Z,97733.02
2019-03-04T12:34:46.203Z,97731.69
2019-03-04T12:37:14.113Z,97730.09
2019-03-04T12:39:42.095Z,97746.44
2019-03-04T12:42:10.113Z,97768.08
2019-03-04T12:44:38.017Z,97761.11
2019-03-04T12:47:06.010Z,97753.09
2019-03-04T12:49:34.194Z,97757.29
2019-03-04T12:52:02.074Z,97778.97
2019-03-04T12:54:30.766Z,97783.70
2019-03-04T12:56:58.749Z,97813.97
2019-03-04T12:59:26.620Z,97836.77
2019-03-04T13:01:54.597Z,97891.41
2019-03-04T13:04:22.650Z,97929.24
2019-03-04T13:06:50.554Z,97907.92
2019-03-04T13:09:18.460Z,97909.16
2019-03-04T13:11:46.321Z,97925.69
2019-03-04T13:14:15.046Z,97911.38
2019-03-04T13:16:42.915Z,97920.34
2019-03-04T13:19:12.946Z,97897.36
2019-03-04T13:21:40.840Z,97894.54
2019-03-04T13:24:08.845Z,97901.48
2019-03-04T13:26:36.718Z,97917.98
2019-03-04T13:29:05.058Z,97904.31
2019-03-04T13:31:33.132Z,97884.52
2019-03-04T13:34:01.135Z,97879.02
2019-03-04T13:36:29.358Z,97904.64
2019-03-04T13:38:57.317Z,97928.21
2019-03-04T13:41:25.222Z,97937.70
2019-03-04T13:43:53.478Z,97964.95
2019-03-04T13:46:21.951Z,97988.16
2019-03-04T13:48:50.229Z,97970.70
2019-03-04T13:51:18.122Z,97966.78
2019-03-04T13:53:48.156Z,98011.80
2019-03-04T13:56:16.178Z,97965.59
2019-03-04T13:58:44.201Z,97963.33
2019-03-04T14:01:12.282Z,97960.80
2019-03-04T14:03:40.586Z,97977.88
2019-03-04T14:08:42.046Z,97982.16
2019-03-04T14:11:11.136Z,98001.38
2019-03-04T14:13:40.848Z,98007.61
2019-03-04T14:16:11.290Z,98016.09
2019-03-04T14:18:40.084Z,98022.69
2019-03-04T14:21:08.950Z,98040.66
2019-03-04T14:23:38.475Z,98012.86
2019-03-04T14:26:07.258Z,98008.91
2019-03-04T14:28:36.084Z,98020.27
2019-03-04T14:31:05.356Z,98033.50
2019-03-04T14:33:34.137Z,98048.91
2019-03-04T14:36:02.967Z,98040.14
2019-03-04T14:38:32.224Z,98029.30
2019-03-04T14:41:01.003Z,98050.22
2019-03-04T14:43:29.819Z,98052.09
2019-03-04T14:45:58.600Z,98053.94
2019-03-04T14:48:27.441Z,98070.09
2019-03-04T14:50:56.331Z,98093.86
2019-03-04T14:53:25.601Z,98076.91
2019-03-04T14:55:54.370Z,98071.06
2019-03-04T14:58:23.181Z,98082.22
2019-03-04T15:00:52.068Z,98084.90
2019-03-04T15:03:23.534Z,98084.11
2019-03-04T15:05:51.810Z,98085.45
2019-03-04T15:08:20.647Z,98075.12
2019-03-04T15:10:49.900Z,98078.56
2019-03-04T15:13:20.745Z,98088.46
2019-03-04T15:15:49.688Z,98099.41
2019-03-04T15:18:19.010Z,98106.34
2019-03-04T15:20:48.222Z,98111.94
2019-03-04T15:23:17.069Z,98112.98
2019-03-04T15:25:46.009Z,98129.66
2019-03-04T15:28:16.725Z,98133.82
2019-03-04T15:30:47.646Z,98135.59
2019-03-04T15:33:18.553Z,98149.80
2019-03-04T15:35:47.546Z,98151.62
2019-03-04T15:38:16.411Z,98161.95
2019-03-04T15:40:45.607Z,98165.16
2019-03-04T15:43:14.878Z,98158.62
2019-03-04T15:45:47.810Z,98168.95
2019-03-04T15:48:17.591Z,98189.35
2019-03-04T15:50:46.376Z,98175.88
2019-03-04T15:53:15.307Z,98203.13
2019-03-04T15:55:44.219Z,98189.86
2019-03-04T15:58:13.271Z,98191.77
2019-03-04T16:00:42.354Z,98187.09
2019-03-04T16:03:11.204Z,98205.91
2019-03-04T16:05:40.189Z,98213.88
2019-03-04T16:08:09.059Z,98205.66
2019-03-04T16:10:38.672Z,98195.32
2019-03-04T16:13:08.035Z,98214.11
2019-03-04T16:15:39.410Z,98204.58
2019-03-04T16:18:08.621Z,98224.14
2019-03-04T16:20:37.393Z,98233.12
2019-03-04T16:23:06.697Z,98222.55
2019-03-04T16:25:35.472Z,98220.45
2019-03-04T16:28:10.427Z,98246.89
2019-03-04T16:30:39.769Z,98235.26
2019-03-04T16:33:08.641Z,98236.84
2019-03-04T16:35:37.600Z,98252.72
2019-03-04T16:38:06.549Z,98252.21
2019-03-04T16:40:35.794Z,98258.30
2019-03-04T16:43:04.673Z,98263.61
2019-03-04T16:45:33.524Z,98280.81
2019-03-04T16:48:02.455Z,98303.84
2019-03-04T16:50:31.528Z,98294.32
2019-03-04T16:53:00.489Z,98290.36
2019-03-04T16:55:29.369Z,98293.49
2019-03-04T16:57:58.288Z,98301.19
2019-03-04T17:00:49.409Z,98320.48
2019-03-04T17:03:18.507Z,98314.38
2019-03-04T17:05:47.425Z,98313.05
2019-03-04T17:08:16.322Z,98318.54
2019-03-04T17:10:45.323Z,98324.59
2019-03-04T17:13:14.929Z,98337.28
2019-03-04T17:15:43.795Z,98340.65
2019-03-04T17:18:12.680Z,98354.35
2019-03-04T17:20:41.454Z,98347.95
2019-03-04T17:23:10.372Z,98364.91
2019-03-04T17:25:39.744Z,98362.22
2019-03-04T17:28:09.806Z,98384.69
2019-03-04T17:30:38.964Z,98397.91
2019-03-04T17:33:08.002Z,98396.81
2019-03-04T17:35:36.806Z,98398.38
2019-03-04T17:38:06.047Z,98396.16
2019-03-04T17:40:35.506Z,98414.67
2019-03-04T17:43:04.349Z,98402.27
2019-03-04T17:45:33.271Z,98428.56
2019-03-04T17:48:03.120Z,98423.78
2019-03-04T17:50:34.936Z,98420.30
2019-03-04T17:53:05.646Z,98440.56
2019-03-04T17:55:34.942Z,98444.81
2019-03-04T17:58:04.029Z,98452.08
2019-03-04T18:00:34.269Z,98454.30
2019-03-04T18:03:03.603Z,98463.69
2019-03-04T18:05:34.082Z,98463.81
2019-03-04T18:08:03.691Z,98469.35
2019-03-04T18:10:32.916Z,98469.25
2019-03-04T18:13:05.150Z,98477.37
2019-03-04T18:15:35.298Z,98487.25
2019-03-04T18:18:05.396Z,98490.58
2019-03-04T18:20:35.044Z,98505.31
2019-03-04T18:23:05.574Z,98515.46
2019-03-04T18:25:47.419Z,98537.78
2019-03-04T18:28:44.577Z,98513.92
2019-03-04T18:31:31.794Z,98519.03
2019-03-04T18:34:47.414Z,98519.85
2019-03-04T18:38:01.280Z,98522.67
2019-03-04T18:40:48.362Z,98528.20
2019-03-04T18:43:29.237Z,98534.81
2019-03-04T18:46:40.211Z,98524.06
2019-03-04T18:49:10.126Z,98544.64
2019-03-04T18:51:44.062Z,98558.20
2019-03-04T18:54:21.278Z,98573.99
2019-03-04T18:56:50.725Z,98572.19
2019-03-04T18:59:20.150Z,98565.80
2019-03-04T19:01:49.009Z,98584.00
2019-03-04T19:04:17.855Z,98568.98
2019-03-04T19:06:46.675Z,98578.64
2019-03-04T19:09:15.986Z,98566.91
2019-03-04T19:11:45.333Z,98561.20
2019-03-04T19:14:15.266Z,98580.20
2019-03-04T19:16:46.423Z,98591.37
2019-03-04T19:19:15.635Z,98600.06
2019-03-04T19:21:45.287Z,98588.22
2019-03-04T19:24:17.706Z,98615.67
2019-03-04T19:26:46.882Z,98580.08
2019-03-04T19:29:18.337Z,98595.19
2019-03-04T19:31:47.539Z,98602.70
2019-03-04T19:34:17.376Z,98599.97
2019-03-04T19:36:46.415Z,98601.53
2019-03-04T19:39:15.289Z,98608.77
2019-03-04T19:41:44.063Z,98615.45
2019-03-04T19:44:12.984Z,98620.20
2019-03-04T19:46:41.871Z,98620.24
2019-03-04T19:49:11.535Z,98616.32
2019-03-04T19:51:40.369Z,98630.14
2019-03-04T19:54:09.227Z,98631.98
2019-03-04T19:56:38.418Z,98630.92
2019-03-04T19:59:07.216Z,98639.34
2019-03-04T20:01:36.082Z,98628.72
2019-03-04T20:04:05.019Z,98647.25
2019-03-04T20:06:33.820Z,98626.80
2019-03-04T20:09:03.788Z,98634.19
2019-03-04T20:11:33.036Z,98642.35
2019-03-04T20:14:02.100Z,98654.98
2019-03-04T20:16:31.023Z,98654.77
2019-03-04T20:18:59.913Z,98648.78
2019-03-04T20:21:28.838Z,98660.55
2019-03-04T20:23:59.962Z,98660.95
2019-03-04T20:26:29.918Z,98658.06
2019-03-04T20:28:58.740Z,98659.92
2019-03-04T20:31:29.064Z,98665.59
2019-03-04T20:33:57.920Z,98662.99
2019-03-04T20:36:26.871Z,98662.99
2019-03-04T20:38:55.651Z,98677.66
2019-03-04T20:41:24.572Z,98677.31
2019-03-04T20:43:53.456Z,98679.02
2019-03-04T20:46:22.648Z,98677.59
2019-03-04T20:48:51.423Z,98685.27
2019-03-04T20:51:20.230Z,98688.55
2019-03-04T20:53:49.112Z,98688.83
2019-03-04T20:56:17.887Z,98686.39
2019-03-04T20:58:46.723Z,98687.43
2019-03-04T21:01:16.047Z,98700.69
2019-03-04T21:03:44.933Z,98707.67
2019-03-04T21:06:14.850Z,98699.98
2019-03-04T21:08:44.600Z,98699.50
2019-03-04T21:11:13.493Z,98696.15
2019-03-04T21:13:42.712Z,98705.06
2019-03-04T21:16:11.634Z,98712.30
2019-03-04T21:18:40.476Z,98711.22
2019-03-04T21:21:10.202Z,98713.78
2019-03-04T21:23:40.485Z,98716.47
2019-03-04T21:26:21.941Z,98711.39
2019-03-04T21:29:10.498Z,98713.70
2019-03-04T21:32:01.837Z,98725.60
2019-03-04T21:35:15.513Z,98720.31
2019-03-04T21:37:46.807Z,98724.77
2019-03-04T21:40:30.118Z,98732.41
2019-03-04T21:43:03.653Z,98734.56
2019-03-04T21:46:07.460Z,98743.07
2019-03-04T21:48:44.117Z,98750.76
2019-03-04T21:51:38.109Z,98745.17
2019-03-04T21:54:03.368Z,98752.28
2019-03-04T21:57:02.042Z,98765.45
2019-03-04T21:59:30.907Z,98749.20
2019-03-04T22:02:23.031Z,98753.62
2019-03-04T22:04:52.033Z,98754.70
2019-03-04T22:07:20.978Z,98764.14
2019-03-04T22:09:49.878Z,98755.00
2019-03-04T22:12:18.863Z,98741.35
2019-03-04T22:14:50.064Z,98750.54
2019-03-04T22:17:18.945Z,98757.09
2019-03-04T22:19:47.791Z,98759.48
2019-03-04T22:22:16.569Z,98762.76
2019-03-04T22:24:45.471Z,98763.34
2019-03-04T22:27:15.468Z,98755.27
2019-03-04T22:29:44.360Z,98744.03
2019-03-04T22:32:13.133Z,98740.08
2019-03-04T22:34:41.928Z,98753.39
2019-03-04T22:37:12.092Z,98750.49
2019-03-04T22:39:41.208Z,98764.04
2019-03-04T22:42:10.415Z,98745.69
2019-03-04T22:44:39.195Z,98752.93
2019-03-04T22:47:08.391Z,98756.34
2019-03-04T22:49:37.197Z,98758.06
2019-03-04T22:52:06.114Z,98750.42
2019-03-04T22:54:35.259Z,98749.19
2019-03-04T22:57:04.102Z,98748.60
2019-03-04T22:59:33.204Z,98752.61
2019-03-04T23:02:04.561Z,98757.33
2019-03-04T23:05:10.887Z,98762.06
2019-03-04T23:07:45.517Z,98758.34
2019-03-04T23:10:49.625Z,98762.36
2019-03-04T23:13:29.398Z,98751.62
2019-03-04T23:15:59.706Z,98747.37
2019-03-04T23:18:28.511Z,98760.55
2019-03-04T23:20:57.351Z,98767.81
2019-03-04T23:23:26.153Z,98776.56
2019-03-04T23:25:56.349Z,98763.53
2019-03-04T23:28:27.794Z,98768.40
2019-03-04T23:30:59.809Z,98773.02
2019-03-04T23:33:27.444Z,98771.63
2019-03-04T23:35:56.393Z,98773.55
2019-03-04T23:38:25.207Z,98775.17
2019-03-04T23:40:53.998Z,98778.17
2019-03-04T23:43:22.838Z,98783.04
2019-03-04T23:45:51.642Z,98765.11
2019-03-04T23:48:20.519Z,98770.81
2019-03-04T23:50:49.391Z,98758.80
2019-03-04T23:53:19.370Z,98786.87
2019-03-04T23:55:48.725Z,98755.77
2019-03-04T23:58:17.496Z,98769.31
